sensor_id;sensor_type;location;lat;lon;timestamp;temperature;humidity
45619;DHT22;31343;47.520;19.144;2022-11-15T00:00:27;6.00;99.90
45619;DHT22;31343;47.520;19.144;2022-11-15T00:02:53;6.10;99.90
45619;DHT22;31343;47.520;19.144;2022-11-15T00:05:19;6.10;99.90
45619;DHT22;31343;47.520;19.144;2022-11-15T00:07:45;6.10;99.90
45619;DHT22;31343;47.520;19.144;2022-11-15T00:10:10;6.20;99.90
45619;DHT22;31343;47.520;19.144;2022-11-15T00:12:36;6.10;99.90
45619;DHT22;31343;47.520;19.144;2022-11-15T00:15:03;6.30;99.90
45619;DHT22;31343;47.520;19.144;2022-11-15T00:17:29;6.20;99.90
45619;DHT22;31343;47.520;19.144;2022-11-15T00:19:55;6.10;99.90
45619;DHT22;31343;47.520;19.144;2022-11-15T00:22:21;6.20;99.90
45619;DHT22;31343;47.520;19.144;2022-11-15T00:24:46;6.20;99.90
45619;DHT22;31343;47.520;19.144;2022-11-15T00:27:12;6.20;99.90
45619;DHT22;31343;47.520;19.144;2022-11-15T00:29:38;6.30;99.90
45619;DHT22;31343;47.520;19.144;2022-11-15T00:32:04;6.30;99.90
45619;DHT22;31343;47.520;19.144;2022-11-15T00:34:30;6.30;99.90
45619;DHT22;31343;47.520;19.144;2022-11-15T00:36:56;6.30;99.90
45619;DHT22;31343;47.520;19.144;2022-11-15T00:39:22;6.20;99.90
45619;DHT22;31343;47.520;19.144;2022-11-15T00:41:47;6.30;99.90
45619;DHT22;31343;47.520;19.144;2022-11-15T00:44:13;6.30;99.90
45619;DHT22;31343;47.520;19.144;2022-11-15T00:46:39;6.30;99.90
45619;DHT22;31343;47.520;19.144;2022-11-15T00:49:04;6.20;99.90
45619;DHT22;31343;47.520;19.144;2022-11-15T00:51:30;6.30;99.90
45619;DHT22;31343;47.520;19.144;2022-11-15T00:53:56;6.20;99.90
45619;DHT22;31343;47.520;19.144;2022-11-15T00:56:21;6.30;99.90
45619;DHT22;31343;47.520;19.144;2022-11-15T00:58:47;6.30;99.90
45619;DHT22;31343;47.520;19.144;2022-11-15T01:01:13;6.30;99.90
45619;DHT22;31343;47.520;19.144;2022-11-15T01:03:40;6.30;99.90
45619;DHT22;31343;47.520;19.144;2022-11-15T01:06:07;6.30;99.90
45619;DHT22;31343;47.520;19.144;2022-11-15T01:08:34;6.40;99.90
45619;DHT22;31343;47.520;19.144;2022-11-15T01:11:08;6.40;99.90
45619;DHT22;31343;47.520;19.144;2022-11-15T01:13:36;6.40;99.90
45619;DHT22;31343;47.520;19.144;2022-11-15T01:16:31;6.40;99.90
45619;DHT22;31343;47.520;19.144;2022-11-15T01:18:59;6.40;99.90
45619;DHT22;31343;47.520;19.144;2022-11-15T01:21:25;6.30;99.90
45619;DHT22;31343;47.520;19.144;2022-11-15T01:23:56;6.30;99.90
45619;DHT22;31343;47.520;19.144;2022-11-15T01:26:22;6.40;99.90
45619;DHT22;31343;47.520;19.144;2022-11-15T01:28:48;6.40;99.90
45619;DHT22;31343;47.520;19.144;2022-11-15T01:31:16;6.40;99.90
45619;DHT22;31343;47.520;19.144;2022-11-15T01:33:42;6.50;99.90
45619;DHT22;31343;47.520;19.144;2022-11-15T01:36:12;6.50;99.90
45619;DHT22;31343;47.520;19.144;2022-11-15T01:38:38;6.50;99.90
45619;DHT22;31343;47.520;19.144;2022-11-15T01:41:04;6.50;99.90
45619;DHT22;31343;47.520;19.144;2022-11-15T01:43:32;6.50;99.90
45619;DHT22;31343;47.520;19.144;2022-11-15T01:48:48;6.50;99.90
45619;DHT22;31343;47.520;19.144;2022-11-15T01:51:16;6.50;99.90
45619;DHT22;31343;47.520;19.144;2022-11-15T01:53:44;6.50;99.90
45619;DHT22;31343;47.520;19.144;2022-11-15T01:56:15;6.50;99.90
45619;DHT22;31343;47.520;19.144;2022-11-15T01:58:42;6.60;99.90
45619;DHT22;31343;47.520;19.144;2022-11-15T02:01:10;6.50;99.90
45619;DHT22;31343;47.520;19.144;2022-11-15T02:04:13;6.60;99.90
45619;DHT22;31343;47.520;19.144;2022-11-15T02:06:41;6.60;99.90
45619;DHT22;31343;47.520;19.144;2022-11-15T02:09:08;6.60;99.90
45619;DHT22;31343;47.520;19.144;2022-11-15T02:11:33;6.60;99.90
45619;DHT22;31343;47.520;19.144;2022-11-15T02:14:01;6.50;99.90
45619;DHT22;31343;47.520;19.144;2022-11-15T02:16:51;6.60;99.90
45619;DHT22;31343;47.520;19.144;2022-11-15T02:30:32;6.50;99.90
45619;DHT22;31343;47.520;19.144;2022-11-15T02:35:58;6.50;99.90
45619;DHT22;31343;47.520;19.144;2022-11-15T02:38:34;6.60;99.90
45619;DHT22;31343;47.520;19.144;2022-11-15T02:41:16;6.60;99.90
45619;DHT22;31343;47.520;19.144;2022-11-15T02:43:59;6.60;99.90
45619;DHT22;31343;47.520;19.144;2022-11-15T02:46:37;6.60;99.90
45619;DHT22;31343;47.520;19.144;2022-11-15T02:49:25;6.60;99.90
45619;DHT22;31343;47.520;19.144;2022-11-15T02:51:52;6.60;99.90
45619;DHT22;31343;47.520;19.144;2022-11-15T02:54:22;6.60;99.90
45619;DHT22;31343;47.520;19.144;2022-11-15T02:56:49;6.60;99.90
45619;DHT22;31343;47.520;19.144;2022-11-15T02:59:21;6.60;99.90
45619;DHT22;31343;47.520;19.144;2022-11-15T03:02:18;6.60;99.90
45619;DHT22;31343;47.520;19.144;2022-11-15T03:07:54;6.60;99.90
45619;DHT22;31343;47.520;19.144;2022-11-15T03:13:26;6.60;99.90
45619;DHT22;31343;47.520;19.144;2022-11-15T03:19:06;6.60;99.90
45619;DHT22;31343;47.520;19.144;2022-11-15T03:21:35;6.60;99.90
45619;DHT22;31343;47.520;19.144;2022-11-15T03:24:05;6.50;99.90
45619;DHT22;31343;47.520;19.144;2022-11-15T03:26:33;6.60;99.90
45619;DHT22;31343;47.520;19.144;2022-11-15T03:29:24;6.60;99.90
45619;DHT22;31343;47.520;19.144;2022-11-15T03:31:51;6.70;99.90
45619;DHT22;31343;47.520;19.144;2022-11-15T03:34:39;6.60;99.90
45619;DHT22;31343;47.520;19.144;2022-11-15T03:37:07;6.70;99.90
45619;DHT22;31343;47.520;19.144;2022-11-15T03:39:34;6.60;99.90
45619;DHT22;31343;47.520;19.144;2022-11-15T03:42:22;6.60;99.90
45619;DHT22;31343;47.520;19.144;2022-11-15T03:48:04;6.70;99.90
45619;DHT22;31343;47.520;19.144;2022-11-15T03:50:31;6.70;99.90
45619;DHT22;31343;47.520;19.144;2022-11-15T03:52:57;6.70;99.90
45619;DHT22;31343;47.520;19.144;2022-11-15T03:55:24;6.70;99.90
45619;DHT22;31343;47.520;19.144;2022-11-15T03:57:53;6.70;99.90
45619;DHT22;31343;47.520;19.144;2022-11-15T04:00:20;6.60;99.90
45619;DHT22;31343;47.520;19.144;2022-11-15T04:02:45;6.70;99.90
45619;DHT22;31343;47.520;19.144;2022-11-15T04:05:11;6.60;99.90
45619;DHT22;31343;47.520;19.144;2022-11-15T04:07:37;6.70;99.90
45619;DHT22;31343;47.520;19.144;2022-11-15T04:10:03;6.70;99.90
45619;DHT22;31343;47.520;19.144;2022-11-15T04:12:30;6.70;99.90
45619;DHT22;31343;47.520;19.144;2022-11-15T04:15:01;6.80;99.90
45619;DHT22;31343;47.520;19.144;2022-11-15T04:17:46;6.80;99.90
45619;DHT22;31343;47.520;19.144;2022-11-15T04:20:15;6.70;99.90
45619;DHT22;31343;47.520;19.144;2022-11-15T04:23:13;6.70;99.90
45619;DHT22;31343;47.520;19.144;2022-11-15T04:26:01;6.70;99.90
45619;DHT22;31343;47.520;19.144;2022-11-15T04:28:27;6.70;99.90
45619;DHT22;31343;47.520;19.144;2022-11-15T04:30:52;6.70;99.90
45619;DHT22;31343;47.520;19.144;2022-11-15T04:33:18;6.70;99.90
45619;DHT22;31343;47.520;19.144;2022-11-15T04:35:44;6.70;99.90
45619;DHT22;31343;47.520;19.144;2022-11-15T04:38:30;6.60;99.90
45619;DHT22;31343;47.520;19.144;2022-11-15T04:40:56;6.70;99.90
45619;DHT22;31343;47.520;19.144;2022-11-15T04:43:22;6.70;99.90
45619;DHT22;31343;47.520;19.144;2022-11-15T04:45:48;6.70;99.90
45619;DHT22;31343;47.520;19.144;2022-11-15T04:48:14;6.70;99.90
45619;DHT22;31343;47.520;19.144;2022-11-15T04:50:39;6.70;99.90
45619;DHT22;31343;47.520;19.144;2022-11-15T04:53:05;6.70;99.90
45619;DHT22;31343;47.520;19.144;2022-11-15T04:55:31;6.70;99.90
45619;DHT22;31343;47.520;19.144;2022-11-15T04:57:58;6.60;99.90
45619;DHT22;31343;47.520;19.144;2022-11-15T05:00:24;6.50;99.90
45619;DHT22;31343;47.520;19.144;2022-11-15T05:02:50;6.60;99.90
45619;DHT22;31343;47.520;19.144;2022-11-15T05:05:34;6.60;99.90
45619;DHT22;31343;47.520;19.144;2022-11-15T05:08:00;6.60;99.90
45619;DHT22;31343;47.520;19.144;2022-11-15T05:10:26;6.70;99.90
45619;DHT22;31343;47.520;19.144;2022-11-15T05:12:51;6.60;99.90
45619;DHT22;31343;47.520;19.144;2022-11-15T05:15:17;6.70;99.90
45619;DHT22;31343;47.520;19.144;2022-11-15T05:17:43;6.60;99.90
45619;DHT22;31343;47.520;19.144;2022-11-15T05:20:09;6.70;99.90
45619;DHT22;31343;47.520;19.144;2022-11-15T05:22:34;6.60;99.90
45619;DHT22;31343;47.520;19.144;2022-11-15T05:25:01;6.60;99.90
45619;DHT22;31343;47.520;19.144;2022-11-15T05:27:28;6.70;99.90
45619;DHT22;31343;47.520;19.144;2022-11-15T05:29:54;6.70;99.90
45619;DHT22;31343;47.520;19.144;2022-11-15T05:32:20;6.80;99.90
45619;DHT22;31343;47.520;19.144;2022-11-15T05:34:46;6.70;99.90
45619;DHT22;31343;47.520;19.144;2022-11-15T05:37:13;6.70;99.90
45619;DHT22;31343;47.520;19.144;2022-11-15T05:39:39;6.70;99.90
45619;DHT22;31343;47.520;19.144;2022-11-15T05:42:13;6.80;99.90
45619;DHT22;31343;47.520;19.144;2022-11-15T05:44:41;6.70;99.90
45619;DHT22;31343;47.520;19.144;2022-11-15T05:47:12;6.80;99.90
45619;DHT22;31343;47.520;19.144;2022-11-15T05:49:40;6.80;99.90
45619;DHT22;31343;47.520;19.144;2022-11-15T05:52:09;6.80;99.90
45619;DHT22;31343;47.520;19.144;2022-11-15T05:54:37;6.80;99.90
45619;DHT22;31343;47.520;19.144;2022-11-15T05:57:05;6.80;99.90
45619;DHT22;31343;47.520;19.144;2022-11-15T05:59:32;7.00;99.90
45619;DHT22;31343;47.520;19.144;2022-11-15T06:01:58;6.90;99.90
45619;DHT22;31343;47.520;19.144;2022-11-15T06:04:24;6.90;99.90
45619;DHT22;31343;47.520;19.144;2022-11-15T06:06:50;6.90;99.90
45619;DHT22;31343;47.520;19.144;2022-11-15T06:09:16;6.90;99.90
45619;DHT22;31343;47.520;19.144;2022-11-15T06:11:41;7.00;99.90
45619;DHT22;31343;47.520;19.144;2022-11-15T06:14:07;6.90;99.90
45619;DHT22;31343;47.520;19.144;2022-11-15T06:16:33;6.90;99.90
45619;DHT22;31343;47.520;19.144;2022-11-15T06:18:58;6.90;99.90
45619;DHT22;31343;47.520;19.144;2022-11-15T06:21:24;7.10;99.90
45619;DHT22;31343;47.520;19.144;2022-11-15T06:23:50;7.10;99.90
45619;DHT22;31343;47.520;19.144;2022-11-15T06:26:15;7.10;99.90
45619;DHT22;31343;47.520;19.144;2022-11-15T06:28:41;7.10;99.90
45619;DHT22;31343;47.520;19.144;2022-11-15T06:31:09;7.10;99.90
45619;DHT22;31343;47.520;19.144;2022-11-15T06:33:35;7.20;99.90
45619;DHT22;31343;47.520;19.144;2022-11-15T06:36:05;7.10;99.90
45619;DHT22;31343;47.520;19.144;2022-11-15T06:38:32;7.00;99.90
45619;DHT22;31343;47.520;19.144;2022-11-15T06:41:05;7.10;99.90
45619;DHT22;31343;47.520;19.144;2022-11-15T06:43:31;7.10;99.90
45619;DHT22;31343;47.520;19.144;2022-11-15T06:45:58;7.20;99.90
45619;DHT22;31343;47.520;19.144;2022-11-15T06:48:25;7.10;99.90
45619;DHT22;31343;47.520;19.144;2022-11-15T06:50:52;7.20;99.90
45619;DHT22;31343;47.520;19.144;2022-11-15T06:53:18;7.20;99.90
45619;DHT22;31343;47.520;19.144;2022-11-15T06:55:44;7.20;99.90
45619;DHT22;31343;47.520;19.144;2022-11-15T06:58:09;7.20;99.90
45619;DHT22;31343;47.520;19.144;2022-11-15T07:00:35;7.30;99.90
45619;DHT22;31343;47.520;19.144;2022-11-15T07:03:01;7.40;99.90
45619;DHT22;31343;47.520;19.144;2022-11-15T07:05:27;7.40;99.90
45619;DHT22;31343;47.520;19.144;2022-11-15T07:07:54;7.40;99.90
45619;DHT22;31343;47.520;19.144;2022-11-15T07:10:21;7.30;99.90
45619;DHT22;31343;47.520;19.144;2022-11-15T07:12:48;7.40;99.90
45619;DHT22;31343;47.520;19.144;2022-11-15T07:15:15;7.40;99.90
45619;DHT22;31343;47.520;19.144;2022-11-15T07:17:41;7.40;99.90
45619;DHT22;31343;47.520;19.144;2022-11-15T07:20:07;7.40;99.90
45619;DHT22;31343;47.520;19.144;2022-11-15T07:22:33;7.50;99.90
45619;DHT22;31343;47.520;19.144;2022-11-15T07:25:00;7.50;99.90
45619;DHT22;31343;47.520;19.144;2022-11-15T07:27:26;7.60;99.90
45619;DHT22;31343;47.520;19.144;2022-11-15T07:29:52;7.60;99.90
45619;DHT22;31343;47.520;19.144;2022-11-15T07:32:17;7.80;99.90
45619;DHT22;31343;47.520;19.144;2022-11-15T07:34:43;7.80;99.90
45619;DHT22;31343;47.520;19.144;2022-11-15T07:37:10;7.80;99.90
45619;DHT22;31343;47.520;19.144;2022-11-15T07:39:36;7.80;99.90
45619;DHT22;31343;47.520;19.144;2022-11-15T07:42:02;7.90;99.90
45619;DHT22;31343;47.520;19.144;2022-11-15T07:44:46;8.00;99.90
45619;DHT22;31343;47.520;19.144;2022-11-15T07:47:12;8.10;99.90
45619;DHT22;31343;47.520;19.144;2022-11-15T07:49:38;8.00;99.90
45619;DHT22;31343;47.520;19.144;2022-11-15T07:52:03;8.10;99.90
45619;DHT22;31343;47.520;19.144;2022-11-15T07:54:29;8.10;99.90
45619;DHT22;31343;47.520;19.144;2022-11-15T07:56:55;8.10;99.90
45619;DHT22;31343;47.520;19.144;2022-11-15T07:59:21;8.20;99.90
45619;DHT22;31343;47.520;19.144;2022-11-15T08:01:46;8.20;99.90
45619;DHT22;31343;47.520;19.144;2022-11-15T08:04:12;8.30;99.90
45619;DHT22;31343;47.520;19.144;2022-11-15T08:06:38;8.40;99.90
45619;DHT22;31343;47.520;19.144;2022-11-15T08:09:03;8.50;99.90
45619;DHT22;31343;47.520;19.144;2022-11-15T08:11:29;8.40;99.90
45619;DHT22;31343;47.520;19.144;2022-11-15T08:13:55;8.50;99.90
45619;DHT22;31343;47.520;19.144;2022-11-15T08:16:21;8.40;99.90
45619;DHT22;31343;47.520;19.144;2022-11-15T08:18:47;8.40;99.90
45619;DHT22;31343;47.520;19.144;2022-11-15T08:21:19;8.40;99.90
45619;DHT22;31343;47.520;19.144;2022-11-15T08:23:45;8.40;99.90
45619;DHT22;31343;47.520;19.144;2022-11-15T08:26:11;8.30;99.90
45619;DHT22;31343;47.520;19.144;2022-11-15T08:28:37;8.30;99.90
45619;DHT22;31343;47.520;19.144;2022-11-15T08:31:04;8.30;99.90
45619;DHT22;31343;47.520;19.144;2022-11-15T08:33:31;8.30;99.90
45619;DHT22;31343;47.520;19.144;2022-11-15T08:35:58;8.30;99.90
45619;DHT22;31343;47.520;19.144;2022-11-15T08:38:24;8.30;99.90
45619;DHT22;31343;47.520;19.144;2022-11-15T08:40:52;8.30;99.90
45619;DHT22;31343;47.520;19.144;2022-11-15T08:43:18;8.40;99.90
45619;DHT22;31343;47.520;19.144;2022-11-15T08:45:44;8.50;99.90
45619;DHT22;31343;47.520;19.144;2022-11-15T08:48:10;8.40;99.90
45619;DHT22;31343;47.520;19.144;2022-11-15T08:50:35;8.40;99.90
45619;DHT22;31343;47.520;19.144;2022-11-15T08:53:06;8.40;99.90
45619;DHT22;31343;47.520;19.144;2022-11-15T08:55:32;8.40;99.90
45619;DHT22;31343;47.520;19.144;2022-11-15T08:57:58;8.40;99.90
45619;DHT22;31343;47.520;19.144;2022-11-15T09:00:24;8.50;99.90
45619;DHT22;31343;47.520;19.144;2022-11-15T09:02:49;8.50;99.90
45619;DHT22;31343;47.520;19.144;2022-11-15T09:05:15;8.40;99.90
45619;DHT22;31343;47.520;19.144;2022-11-15T09:07:41;8.40;99.90
45619;DHT22;31343;47.520;19.144;2022-11-15T09:10:07;8.50;99.90
45619;DHT22;31343;47.520;19.144;2022-11-15T09:12:33;8.50;99.90
45619;DHT22;31343;47.520;19.144;2022-11-15T09:14:59;8.60;99.90
45619;DHT22;31343;47.520;19.144;2022-11-15T09:17:24;8.70;99.90
45619;DHT22;31343;47.520;19.144;2022-11-15T09:19:50;8.80;99.90
45619;DHT22;31343;47.520;19.144;2022-11-15T09:22:16;8.80;99.90
45619;DHT22;31343;47.520;19.144;2022-11-15T09:24:41;8.80;99.90
45619;DHT22;31343;47.520;19.144;2022-11-15T09:27:07;8.80;99.90
45619;DHT22;31343;47.520;19.144;2022-11-15T09:29:33;8.80;99.90
45619;DHT22;31343;47.520;19.144;2022-11-15T09:31:59;8.60;99.90
45619;DHT22;31343;47.520;19.144;2022-11-15T09:34:25;8.50;99.90
45619;DHT22;31343;47.520;19.144;2022-11-15T09:36:50;8.50;99.90
45619;DHT22;31343;47.520;19.144;2022-11-15T09:39:16;8.30;99.90
45619;DHT22;31343;47.520;19.144;2022-11-15T09:44:57;8.40;99.90
45619;DHT22;31343;47.520;19.144;2022-11-15T09:48:06;8.60;99.90
45619;DHT22;31343;47.520;19.144;2022-11-15T09:50:45;8.70;99.90
45619;DHT22;31343;47.520;19.144;2022-11-15T09:53:17;8.80;99.90
45619;DHT22;31343;47.520;19.144;2022-11-15T09:56:13;8.80;99.90
45619;DHT22;31343;47.520;19.144;2022-11-15T10:04:09;8.90;99.90
45619;DHT22;31343;47.520;19.144;2022-11-15T10:06:38;9.00;99.90
45619;DHT22;31343;47.520;19.144;2022-11-15T10:09:26;9.00;99.90
45619;DHT22;31343;47.520;19.144;2022-11-15T10:11:54;9.10;99.90
45619;DHT22;31343;47.520;19.144;2022-11-15T10:14:24;9.10;99.90
45619;DHT22;31343;47.520;19.144;2022-11-15T10:22:48;9.00;99.90
45619;DHT22;31343;47.520;19.144;2022-11-15T10:25:26;9.00;99.90
45619;DHT22;31343;47.520;19.144;2022-11-15T10:30:52;8.90;99.90
45619;DHT22;31343;47.520;19.144;2022-11-15T10:41:14;8.80;99.90
45619;DHT22;31343;47.520;19.144;2022-11-15T10:43:41;8.60;99.90
45619;DHT22;31343;47.520;19.144;2022-11-15T10:46:21;8.60;99.90
45619;DHT22;31343;47.520;19.144;2022-11-15T10:48:47;8.40;99.90
45619;DHT22;31343;47.520;19.144;2022-11-15T10:51:25;8.40;99.90
45619;DHT22;31343;47.520;19.144;2022-11-15T10:53:56;8.40;99.90
45619;DHT22;31343;47.520;19.144;2022-11-15T10:56:25;8.50;99.90
45619;DHT22;31343;47.520;19.144;2022-11-15T10:58:54;8.60;99.90
45619;DHT22;31343;47.520;19.144;2022-11-15T11:01:25;8.60;99.90
45619;DHT22;31343;47.520;19.144;2022-11-15T11:04:08;8.60;99.90
45619;DHT22;31343;47.520;19.144;2022-11-15T11:06:57;8.40;99.90
45619;DHT22;31343;47.520;19.144;2022-11-15T11:09:33;8.30;99.90
45619;DHT22;31343;47.520;19.144;2022-11-15T11:12:00;8.30;99.90
45619;DHT22;31343;47.520;19.144;2022-11-15T11:14:35;8.30;99.90
45619;DHT22;31343;47.520;19.144;2022-11-15T11:20:07;8.40;99.90
45619;DHT22;31343;47.520;19.144;2022-11-15T11:33:50;8.70;99.90
45619;DHT22;31343;47.520;19.144;2022-11-15T11:36:45;8.80;99.90
45619;DHT22;31343;47.520;19.144;2022-11-15T11:41:53;8.80;99.90
45619;DHT22;31343;47.520;19.144;2022-11-15T11:47:32;8.80;99.90
45619;DHT22;31343;47.520;19.144;2022-11-15T11:50:11;9.00;99.90
45619;DHT22;31343;47.520;19.144;2022-11-15T11:53:02;9.00;99.90
45619;DHT22;31343;47.520;19.144;2022-11-15T11:55:31;9.00;99.90
45619;DHT22;31343;47.520;19.144;2022-11-15T12:00:26;8.80;99.90
45619;DHT22;31343;47.520;19.144;2022-11-15T12:05:50;8.70;99.90
45619;DHT22;31343;47.520;19.144;2022-11-15T12:10:54;8.60;99.90
45619;DHT22;31343;47.520;19.144;2022-11-15T12:13:26;8.50;99.90
45619;DHT22;31343;47.520;19.144;2022-11-15T12:18:28;8.40;99.90
45619;DHT22;31343;47.520;19.144;2022-11-15T12:20:59;8.40;99.90
45619;DHT22;31343;47.520;19.144;2022-11-15T12:23:53;8.40;99.90
45619;DHT22;31343;47.520;19.144;2022-11-15T12:26:20;8.40;99.90
45619;DHT22;31343;47.520;19.144;2022-11-15T12:29:03;8.40;99.90
45619;DHT22;31343;47.520;19.144;2022-11-15T12:31:44;8.40;99.90
45619;DHT22;31343;47.520;19.144;2022-11-15T12:36:52;8.20;99.90
45619;DHT22;31343;47.520;19.144;2022-11-15T12:39:18;8.20;99.90
45619;DHT22;31343;47.520;19.144;2022-11-15T12:52:05;8.30;99.90
45619;DHT22;31343;47.520;19.144;2022-11-15T12:59:50;8.00;99.90
45619;DHT22;31343;47.520;19.144;2022-11-15T13:04:44;8.10;99.90
45619;DHT22;31343;47.520;19.144;2022-11-15T13:17:42;8.10;99.90
45619;DHT22;31343;47.520;19.144;2022-11-15T13:22:51;8.10;99.90
45619;DHT22;31343;47.520;19.144;2022-11-15T13:30:54;8.00;99.90
45619;DHT22;31343;47.520;19.144;2022-11-15T13:33:36;8.10;99.90
45619;DHT22;31343;47.520;19.144;2022-11-15T13:38:55;8.20;99.90
45619;DHT22;31343;47.520;19.144;2022-11-15T13:41:30;8.20;99.90
45619;DHT22;31343;47.520;19.144;2022-11-15T13:43:57;8.10;99.90
45619;DHT22;31343;47.520;19.144;2022-11-15T13:51:47;8.10;99.90
45619;DHT22;31343;47.520;19.144;2022-11-15T13:54:25;8.10;99.90
45619;DHT22;31343;47.520;19.144;2022-11-15T13:57:00;8.20;99.90
45619;DHT22;31343;47.520;19.144;2022-11-15T13:59:35;8.30;99.90
45619;DHT22;31343;47.520;19.144;2022-11-15T14:02:16;8.40;99.90
45619;DHT22;31343;47.520;19.144;2022-11-15T14:04:49;8.20;99.90
45619;DHT22;31343;47.520;19.144;2022-11-15T14:07:20;8.20;99.90
45619;DHT22;31343;47.520;19.144;2022-11-15T14:09:47;8.30;99.90
45619;DHT22;31343;47.520;19.144;2022-11-15T14:12:28;8.30;99.90
45619;DHT22;31343;47.520;19.144;2022-11-15T14:14:55;8.40;99.90
45619;DHT22;31343;47.520;19.144;2022-11-15T14:17:34;8.30;99.90
45619;DHT22;31343;47.520;19.144;2022-11-15T14:20:01;8.20;99.90
45619;DHT22;31343;47.520;19.144;2022-11-15T14:22:30;8.20;99.90
45619;DHT22;31343;47.520;19.144;2022-11-15T14:25:23;8.20;99.90
45619;DHT22;31343;47.520;19.144;2022-11-15T14:28:09;8.20;99.90
45619;DHT22;31343;47.520;19.144;2022-11-15T14:30:35;8.10;99.90
45619;DHT22;31343;47.520;19.144;2022-11-15T14:33:01;8.00;99.90
45619;DHT22;31343;47.520;19.144;2022-11-15T14:35:28;8.00;99.90
45619;DHT22;31343;47.520;19.144;2022-11-15T14:37:53;8.00;99.90
45619;DHT22;31343;47.520;19.144;2022-11-15T14:40:21;8.00;99.90
45619;DHT22;31343;47.520;19.144;2022-11-15T14:42:49;8.00;99.90
45619;DHT22;31343;47.520;19.144;2022-11-15T14:45:20;8.00;99.90
45619;DHT22;31343;47.520;19.144;2022-11-15T14:47:46;8.10;99.90
45619;DHT22;31343;47.520;19.144;2022-11-15T14:50:13;8.00;99.90
45619;DHT22;31343;47.520;19.144;2022-11-15T14:52:39;8.00;99.90
45619;DHT22;31343;47.520;19.144;2022-11-15T14:55:19;8.10;99.90
45619;DHT22;31343;47.520;19.144;2022-11-15T14:57:46;8.00;99.90
45619;DHT22;31343;47.520;19.144;2022-11-15T15:00:13;7.90;99.90
45619;DHT22;31343;47.520;19.144;2022-11-15T15:02:40;7.90;99.90
45619;DHT22;31343;47.520;19.144;2022-11-15T15:05:39;7.80;99.90
45619;DHT22;31343;47.520;19.144;2022-11-15T15:08:05;7.90;99.90
45619;DHT22;31343;47.520;19.144;2022-11-15T15:10:37;7.90;99.90
45619;DHT22;31343;47.520;19.144;2022-11-15T15:13:05;7.90;99.90
45619;DHT22;31343;47.520;19.144;2022-11-15T15:15:37;7.90;99.90
45619;DHT22;31343;47.520;19.144;2022-11-15T15:18:04;8.00;99.90
45619;DHT22;31343;47.520;19.144;2022-11-15T15:20:31;8.00;99.90
45619;DHT22;31343;47.520;19.144;2022-11-15T15:22:58;8.10;99.90
45619;DHT22;31343;47.520;19.144;2022-11-15T15:25:28;8.00;99.90
45619;DHT22;31343;47.520;19.144;2022-11-15T15:27:54;8.00;99.90
45619;DHT22;31343;47.520;19.144;2022-11-15T15:30:21;7.90;99.90
45619;DHT22;31343;47.520;19.144;2022-11-15T15:32:47;7.90;99.90
45619;DHT22;31343;47.520;19.144;2022-11-15T15:35:14;7.90;99.90
45619;DHT22;31343;47.520;19.144;2022-11-15T15:37:41;7.90;99.90
45619;DHT22;31343;47.520;19.144;2022-11-15T15:40:27;7.80;99.90
45619;DHT22;31343;47.520;19.144;2022-11-15T15:42:53;7.90;99.90
45619;DHT22;31343;47.520;19.144;2022-11-15T15:45:20;7.90;99.90
45619;DHT22;31343;47.520;19.144;2022-11-15T15:47:46;7.90;99.90
45619;DHT22;31343;47.520;19.144;2022-11-15T15:50:18;8.00;99.90
45619;DHT22;31343;47.520;19.144;2022-11-15T15:52:45;8.00;99.90
45619;DHT22;31343;47.520;19.144;2022-11-15T15:55:11;8.00;99.90
45619;DHT22;31343;47.520;19.144;2022-11-15T15:57:37;8.00;99.90
45619;DHT22;31343;47.520;19.144;2022-11-15T16:00:04;8.00;99.90
45619;DHT22;31343;47.520;19.144;2022-11-15T16:02:30;8.00;99.90
45619;DHT22;31343;47.520;19.144;2022-11-15T16:04:55;8.00;99.90
45619;DHT22;31343;47.520;19.144;2022-11-15T16:07:22;8.00;99.90
45619;DHT22;31343;47.520;19.144;2022-11-15T16:09:49;7.90;99.90
45619;DHT22;31343;47.520;19.144;2022-11-15T16:12:32;7.80;99.90
45619;DHT22;31343;47.520;19.144;2022-11-15T16:14:59;7.80;99.90
45619;DHT22;31343;47.520;19.144;2022-11-15T16:17:36;7.80;99.90
45619;DHT22;31343;47.520;19.144;2022-11-15T16:20:03;7.90;99.90
45619;DHT22;31343;47.520;19.144;2022-11-15T16:22:28;7.80;99.90
45619;DHT22;31343;47.520;19.144;2022-11-15T16:24:55;7.70;99.90
45619;DHT22;31343;47.520;19.144;2022-11-15T16:27:21;7.80;99.90
45619;DHT22;31343;47.520;19.144;2022-11-15T16:29:47;7.80;99.90
45619;DHT22;31343;47.520;19.144;2022-11-15T16:32:13;7.90;99.90
45619;DHT22;31343;47.520;19.144;2022-11-15T16:34:39;7.90;99.90
45619;DHT22;31343;47.520;19.144;2022-11-15T16:37:05;7.80;99.90
45619;DHT22;31343;47.520;19.144;2022-11-15T16:39:33;7.70;99.90
45619;DHT22;31343;47.520;19.144;2022-11-15T16:41:59;7.70;99.90
45619;DHT22;31343;47.520;19.144;2022-11-15T16:44:27;7.60;99.90
45619;DHT22;31343;47.520;19.144;2022-11-15T16:46:53;7.60;99.90
45619;DHT22;31343;47.520;19.144;2022-11-15T16:49:20;7.60;99.90
45619;DHT22;31343;47.520;19.144;2022-11-15T16:51:47;7.60;99.90
45619;DHT22;31343;47.520;19.144;2022-11-15T16:54:14;7.70;99.90
45619;DHT22;31343;47.520;19.144;2022-11-15T16:56:40;7.70;99.90
45619;DHT22;31343;47.520;19.144;2022-11-15T16:59:08;7.70;99.90
45619;DHT22;31343;47.520;19.144;2022-11-15T17:01:37;7.70;99.90
45619;DHT22;31343;47.520;19.144;2022-11-15T17:04:14;7.80;99.90
45619;DHT22;31343;47.520;19.144;2022-11-15T17:06:42;7.70;99.90
45619;DHT22;31343;47.520;19.144;2022-11-15T17:09:20;7.70;99.90
45619;DHT22;31343;47.520;19.144;2022-11-15T17:11:49;7.80;99.90
45619;DHT22;31343;47.520;19.144;2022-11-15T17:14:15;7.80;99.90
45619;DHT22;31343;47.520;19.144;2022-11-15T17:16:41;7.80;99.90
45619;DHT22;31343;47.520;19.144;2022-11-15T17:19:17;7.80;99.90
45619;DHT22;31343;47.520;19.144;2022-11-15T17:21:44;7.80;99.90
45619;DHT22;31343;47.520;19.144;2022-11-15T17:24:10;7.80;99.90
45619;DHT22;31343;47.520;19.144;2022-11-15T17:26:36;7.80;99.90
45619;DHT22;31343;47.520;19.144;2022-11-15T17:29:03;7.90;99.90
45619;DHT22;31343;47.520;19.144;2022-11-15T17:31:33;7.90;99.90
45619;DHT22;31343;47.520;19.144;2022-11-15T17:34:01;7.90;99.90
45619;DHT22;31343;47.520;19.144;2022-11-15T17:36:26;7.90;99.90
45619;DHT22;31343;47.520;19.144;2022-11-15T17:38:52;7.80;99.90
45619;DHT22;31343;47.520;19.144;2022-11-15T17:41:18;7.90;99.90
45619;DHT22;31343;47.520;19.144;2022-11-15T17:43:46;7.90;99.90
45619;DHT22;31343;47.520;19.144;2022-11-15T17:46:17;7.90;99.90
45619;DHT22;31343;47.520;19.144;2022-11-15T17:48:44;7.90;99.90
45619;DHT22;31343;47.520;19.144;2022-11-15T17:51:13;7.90;99.90
45619;DHT22;31343;47.520;19.144;2022-11-15T17:53:40;7.80;99.90
45619;DHT22;31343;47.520;19.144;2022-11-15T17:56:12;7.80;99.90